sensor_id;sensor_type;location;lat;lon;timestamp;temperature;humidity
79065;DHT22;68469;51.502;7.462;2023-06-14T00:01:50;19.10;50.60
79065;DHT22;68469;51.502;7.462;2023-06-14T00:04:16;19.00;50.90
79065;DHT22;68469;51.502;7.462;2023-06-14T00:06:43;19.00;51.10
79065;DHT22;68469;51.502;7.462;2023-06-14T00:09:13;19.00;51.30
79065;DHT22;68469;51.502;7.462;2023-06-14T00:11:40;18.80;51.50
79065;DHT22;68469;51.502;7.462;2023-06-14T00:14:06;18.80;51.60
79065;DHT22;68469;51.502;7.462;2023-06-14T00:16:32;18.70;51.60
79065;DHT22;68469;51.502;7.462;2023-06-14T00:19:01;18.70;52.40
79065;DHT22;68469;51.502;7.462;2023-06-14T00:21:29;18.60;51.70
79065;DHT22;68469;51.502;7.462;2023-06-14T00:23:55;18.50;51.80
79065;DHT22;68469;51.502;7.462;2023-06-14T00:26:21;18.50;52.10
79065;DHT22;68469;51.502;7.462;2023-06-14T00:28:46;18.40;52.10
79065;DHT22;68469;51.502;7.462;2023-06-14T00:31:12;18.40;52.30
79065;DHT22;68469;51.502;7.462;2023-06-14T00:33:37;18.40;52.40
79065;DHT22;68469;51.502;7.462;2023-06-14T00:36:03;18.30;52.50
79065;DHT22;68469;51.502;7.462;2023-06-14T00:38:29;18.30;52.70
79065;DHT22;68469;51.502;7.462;2023-06-14T00:40:54;18.20;52.90
79065;DHT22;68469;51.502;7.462;2023-06-14T00:43:20;18.10;53.30
79065;DHT22;68469;51.502;7.462;2023-06-14T00:45:45;18.00;53.40
79065;DHT22;68469;51.502;7.462;2023-06-14T00:48:13;18.00;53.70
79065;DHT22;68469;51.502;7.462;2023-06-14T00:50:39;18.00;53.50
79065;DHT22;68469;51.502;7.462;2023-06-14T00:53:06;18.00;53.80
79065;DHT22;68469;51.502;7.462;2023-06-14T00:55:31;17.90;54.00
79065;DHT22;68469;51.502;7.462;2023-06-14T00:57:58;17.80;54.30
79065;DHT22;68469;51.502;7.462;2023-06-14T01:00:24;17.90;54.30
79065;DHT22;68469;51.502;7.462;2023-06-14T01:02:50;17.80;54.30
79065;DHT22;68469;51.502;7.462;2023-06-14T01:05:16;17.80;54.60
79065;DHT22;68469;51.502;7.462;2023-06-14T01:08:29;17.70;54.60
79065;DHT22;68469;51.502;7.462;2023-06-14T01:11:05;17.70;54.70
79065;DHT22;68469;51.502;7.462;2023-06-14T01:13:32;17.70;55.00
79065;DHT22;68469;51.502;7.462;2023-06-14T01:15:59;17.70;55.00
79065;DHT22;68469;51.502;7.462;2023-06-14T01:18:25;17.70;55.10
79065;DHT22;68469;51.502;7.462;2023-06-14T01:20:53;17.70;55.10
79065;DHT22;68469;51.502;7.462;2023-06-14T01:23:21;17.70;55.10
79065;DHT22;68469;51.502;7.462;2023-06-14T01:25:48;17.60;55.10
79065;DHT22;68469;51.502;7.462;2023-06-14T01:28:18;17.70;55.10
79065;DHT22;68469;51.502;7.462;2023-06-14T01:30:46;17.70;54.90
79065;DHT22;68469;51.502;7.462;2023-06-14T01:33:17;17.70;55.00
79065;DHT22;68469;51.502;7.462;2023-06-14T01:35:49;17.60;55.10
79065;DHT22;68469;51.502;7.462;2023-06-14T01:38:15;17.60;55.10
79065;DHT22;68469;51.502;7.462;2023-06-14T01:40:46;17.50;55.20
79065;DHT22;68469;51.502;7.462;2023-06-14T01:43:14;17.50;55.50
79065;DHT22;68469;51.502;7.462;2023-06-14T01:45:41;17.40;55.70
79065;DHT22;68469;51.502;7.462;2023-06-14T01:48:07;17.40;55.70
79065;DHT22;68469;51.502;7.462;2023-06-14T01:50:34;17.40;55.70
79065;DHT22;68469;51.502;7.462;2023-06-14T01:52:59;17.30;55.90
79065;DHT22;68469;51.502;7.462;2023-06-14T01:55:25;17.30;56.00
79065;DHT22;68469;51.502;7.462;2023-06-14T01:57:51;17.30;56.10
79065;DHT22;68469;51.502;7.462;2023-06-14T02:00:17;17.20;56.20
79065;DHT22;68469;51.502;7.462;2023-06-14T02:02:43;17.20;56.30
79065;DHT22;68469;51.502;7.462;2023-06-14T02:05:09;17.20;56.30
79065;DHT22;68469;51.502;7.462;2023-06-14T02:07:36;17.10;56.50
79065;DHT22;68469;51.502;7.462;2023-06-14T02:10:03;17.10;56.60
79065;DHT22;68469;51.502;7.462;2023-06-14T02:12:28;17.00;56.70
79065;DHT22;68469;51.502;7.462;2023-06-14T02:14:54;17.00;56.70
79065;DHT22;68469;51.502;7.462;2023-06-14T02:17:19;17.00;56.70
79065;DHT22;68469;51.502;7.462;2023-06-14T02:19:45;17.00;56.60
79065;DHT22;68469;51.502;7.462;2023-06-14T02:22:11;16.90;56.80
79065;DHT22;68469;51.502;7.462;2023-06-14T02:24:37;16.80;56.80
79065;DHT22;68469;51.502;7.462;2023-06-14T02:27:02;16.80;56.80
79065;DHT22;68469;51.502;7.462;2023-06-14T02:29:28;16.80;56.70
79065;DHT22;68469;51.502;7.462;2023-06-14T02:31:54;16.80;56.60
79065;DHT22;68469;51.502;7.462;2023-06-14T02:34:20;16.80;56.70
79065;DHT22;68469;51.502;7.462;2023-06-14T02:36:47;16.80;56.70
79065;DHT22;68469;51.502;7.462;2023-06-14T02:39:13;16.70;56.80
79065;DHT22;68469;51.502;7.462;2023-06-14T02:41:39;16.70;56.50
79065;DHT22;68469;51.502;7.462;2023-06-14T02:44:05;16.70;56.70
79065;DHT22;68469;51.502;7.462;2023-06-14T02:46:31;16.60;56.70
79065;DHT22;68469;51.502;7.462;2023-06-14T02:48:56;16.60;57.10
79065;DHT22;68469;51.502;7.462;2023-06-14T02:51:22;16.50;57.20
79065;DHT22;68469;51.502;7.462;2023-06-14T02:53:47;16.50;56.90
79065;DHT22;68469;51.502;7.462;2023-06-14T02:56:13;16.50;57.10
79065;DHT22;68469;51.502;7.462;2023-06-14T02:58:39;16.50;57.10
79065;DHT22;68469;51.502;7.462;2023-06-14T03:01:06;16.40;57.20
79065;DHT22;68469;51.502;7.462;2023-06-14T03:03:33;16.30;57.30
79065;DHT22;68469;51.502;7.462;2023-06-14T03:05:59;16.30;57.50
79065;DHT22;68469;51.502;7.462;2023-06-14T03:08:29;16.30;57.40
79065;DHT22;68469;51.502;7.462;2023-06-14T03:10:56;16.30;57.40
79065;DHT22;68469;51.502;7.462;2023-06-14T03:13:22;16.30;57.50
79065;DHT22;68469;51.502;7.462;2023-06-14T03:15:48;16.30;57.50
79065;DHT22;68469;51.502;7.462;2023-06-14T03:18:16;16.20;57.70
79065;DHT22;68469;51.502;7.462;2023-06-14T03:20:42;16.30;57.60
79065;DHT22;68469;51.502;7.462;2023-06-14T03:23:08;16.20;57.80
79065;DHT22;68469;51.502;7.462;2023-06-14T03:25:34;16.20;57.70
79065;DHT22;68469;51.502;7.462;2023-06-14T03:28:04;16.20;57.70
79065;DHT22;68469;51.502;7.462;2023-06-14T03:30:30;16.10;57.80
79065;DHT22;68469;51.502;7.462;2023-06-14T03:32:56;16.10;57.90
79065;DHT22;68469;51.502;7.462;2023-06-14T03:35:23;16.10;57.80
79065;DHT22;68469;51.502;7.462;2023-06-14T03:37:49;16.10;57.80
79065;DHT22;68469;51.502;7.462;2023-06-14T03:40:18;16.10;58.00
79065;DHT22;68469;51.502;7.462;2023-06-14T03:42:44;16.00;58.00
79065;DHT22;68469;51.502;7.462;2023-06-14T03:45:09;16.00;58.00
79065;DHT22;68469;51.502;7.462;2023-06-14T03:47:35;16.00;57.80
79065;DHT22;68469;51.502;7.462;2023-06-14T03:50:02;15.90;58.20
79065;DHT22;68469;51.502;7.462;2023-06-14T03:52:28;15.80;58.40
79065;DHT22;68469;51.502;7.462;2023-06-14T03:54:53;15.90;58.40
79065;DHT22;68469;51.502;7.462;2023-06-14T03:57:19;15.80;58.50
79065;DHT22;68469;51.502;7.462;2023-06-14T03:59:45;16.00;58.30
79065;DHT22;68469;51.502;7.462;2023-06-14T04:02:12;16.00;58.00
79065;DHT22;68469;51.502;7.462;2023-06-14T04:04:40;16.10;57.60
79065;DHT22;68469;51.502;7.462;2023-06-14T04:07:10;16.10;57.20
79065;DHT22;68469;51.502;7.462;2023-06-14T04:09:37;16.10;57.60
79065;DHT22;68469;51.502;7.462;2023-06-14T04:12:02;16.20;57.70
79065;DHT22;68469;51.502;7.462;2023-06-14T04:14:28;16.20;57.60
79065;DHT22;68469;51.502;7.462;2023-06-14T04:16:54;16.20;57.70
79065;DHT22;68469;51.502;7.462;2023-06-14T04:19:19;16.30;57.50
79065;DHT22;68469;51.502;7.462;2023-06-14T04:21:45;16.30;57.70
79065;DHT22;68469;51.502;7.462;2023-06-14T04:24:11;16.30;57.60
79065;DHT22;68469;51.502;7.462;2023-06-14T04:26:40;16.40;57.40
79065;DHT22;68469;51.502;7.462;2023-06-14T04:29:06;16.40;57.10
79065;DHT22;68469;51.502;7.462;2023-06-14T04:31:32;16.40;57.30
79065;DHT22;68469;51.502;7.462;2023-06-14T04:34:03;16.40;57.00
79065;DHT22;68469;51.502;7.462;2023-06-14T04:36:34;16.50;56.60
79065;DHT22;68469;51.502;7.462;2023-06-14T04:39:02;16.60;56.70
79065;DHT22;68469;51.502;7.462;2023-06-14T04:41:30;16.70;56.00
79065;DHT22;68469;51.502;7.462;2023-06-14T04:44:01;16.80;55.90
79065;DHT22;68469;51.502;7.462;2023-06-14T04:46:29;16.90;55.40
79065;DHT22;68469;51.502;7.462;2023-06-14T04:48:57;17.00;55.20
79065;DHT22;68469;51.502;7.462;2023-06-14T04:51:27;17.00;55.30
79065;DHT22;68469;51.502;7.462;2023-06-14T04:53:56;17.10;55.10
79065;DHT22;68469;51.502;7.462;2023-06-14T04:56:25;17.20;55.20
79065;DHT22;68469;51.502;7.462;2023-06-14T04:58:51;17.30;55.10
79065;DHT22;68469;51.502;7.462;2023-06-14T05:01:18;17.30;54.50
79065;DHT22;68469;51.502;7.462;2023-06-14T05:03:44;17.40;54.70
79065;DHT22;68469;51.502;7.462;2023-06-14T05:06:11;17.50;54.20
79065;DHT22;68469;51.502;7.462;2023-06-14T05:08:37;17.50;54.00
79065;DHT22;68469;51.502;7.462;2023-06-14T05:11:03;17.60;53.80
79065;DHT22;68469;51.502;7.462;2023-06-14T05:13:28;17.60;53.30
79065;DHT22;68469;51.502;7.462;2023-06-14T05:15:54;17.80;52.70
79065;DHT22;68469;51.502;7.462;2023-06-14T05:18:19;17.90;53.10
79065;DHT22;68469;51.502;7.462;2023-06-14T05:20:45;18.00;52.80
79065;DHT22;68469;51.502;7.462;2023-06-14T05:23:11;18.00;52.60
79065;DHT22;68469;51.502;7.462;2023-06-14T05:25:42;18.10;52.60
79065;DHT22;68469;51.502;7.462;2023-06-14T05:28:08;18.20;52.40
79065;DHT22;68469;51.502;7.462;2023-06-14T05:30:34;18.30;51.80
79065;DHT22;68469;51.502;7.462;2023-06-14T05:33:00;18.40;51.70
79065;DHT22;68469;51.502;7.462;2023-06-14T05:35:25;18.50;51.30
79065;DHT22;68469;51.502;7.462;2023-06-14T05:37:52;18.60;50.70
79065;DHT22;68469;51.502;7.462;2023-06-14T05:40:19;18.70;50.60
79065;DHT22;68469;51.502;7.462;2023-06-14T05:42:45;18.80;50.20
79065;DHT22;68469;51.502;7.462;2023-06-14T05:45:11;18.80;49.90
79065;DHT22;68469;51.502;7.462;2023-06-14T05:47:37;18.80;50.00
79065;DHT22;68469;51.502;7.462;2023-06-14T05:50:02;18.90;50.10
79065;DHT22;68469;51.502;7.462;2023-06-14T05:52:28;18.90;50.30
79065;DHT22;68469;51.502;7.462;2023-06-14T05:54:55;18.90;49.80
79065;DHT22;68469;51.502;7.462;2023-06-14T05:57:20;18.90;50.20
79065;DHT22;68469;51.502;7.462;2023-06-14T05:59:46;19.00;50.50
79065;DHT22;68469;51.502;7.462;2023-06-14T06:02:12;19.20;49.80
79065;DHT22;68469;51.502;7.462;2023-06-14T06:04:37;19.30;49.60
79065;DHT22;68469;51.502;7.462;2023-06-14T06:07:03;19.40;49.20
79065;DHT22;68469;51.502;7.462;2023-06-14T06:09:29;19.60;50.00
79065;DHT22;68469;51.502;7.462;2023-06-14T06:11:55;19.80;48.60
79065;DHT22;68469;51.502;7.462;2023-06-14T06:14:21;20.00;48.20
79065;DHT22;68469;51.502;7.462;2023-06-14T06:16:46;20.00;47.90
79065;DHT22;68469;51.502;7.462;2023-06-14T06:19:12;20.20;47.50
79065;DHT22;68469;51.502;7.462;2023-06-14T06:21:38;20.10;47.00
79065;DHT22;68469;51.502;7.462;2023-06-14T06:24:05;20.00;47.30
79065;DHT22;68469;51.502;7.462;2023-06-14T06:26:31;19.90;47.70
79065;DHT22;68469;51.502;7.462;2023-06-14T06:28:58;19.90;48.00
79065;DHT22;68469;51.502;7.462;2023-06-14T06:31:23;19.90;47.80
79065;DHT22;68469;51.502;7.462;2023-06-14T06:33:49;20.10;47.60
79065;DHT22;68469;51.502;7.462;2023-06-14T06:36:16;20.10;47.50
79065;DHT22;68469;51.502;7.462;2023-06-14T06:38:41;20.20;47.00
79065;DHT22;68469;51.502;7.462;2023-06-14T06:41:07;20.20;47.20
79065;DHT22;68469;51.502;7.462;2023-06-14T06:43:33;20.30;47.10
79065;DHT22;68469;51.502;7.462;2023-06-14T06:45:58;20.30;46.50
79065;DHT22;68469;51.502;7.462;2023-06-14T06:48:24;20.40;46.80
79065;DHT22;68469;51.502;7.462;2023-06-14T06:50:50;20.50;46.90
79065;DHT22;68469;51.502;7.462;2023-06-14T06:53:16;20.60;47.00
79065;DHT22;68469;51.502;7.462;2023-06-14T06:55:43;20.80;46.40
79065;DHT22;68469;51.502;7.462;2023-06-14T06:58:09;20.90;45.70
79065;DHT22;68469;51.502;7.462;2023-06-14T07:00:35;20.80;45.30
79065;DHT22;68469;51.502;7.462;2023-06-14T07:03:01;20.70;46.10
79065;DHT22;68469;51.502;7.462;2023-06-14T07:05:26;20.70;46.10
79065;DHT22;68469;51.502;7.462;2023-06-14T07:07:52;20.70;45.70
79065;DHT22;68469;51.502;7.462;2023-06-14T07:10:18;20.80;45.60
79065;DHT22;68469;51.502;7.462;2023-06-14T07:12:44;20.90;45.30
79065;DHT22;68469;51.502;7.462;2023-06-14T07:15:10;21.00;45.20
79065;DHT22;68469;51.502;7.462;2023-06-14T07:17:36;21.00;45.10
79065;DHT22;68469;51.502;7.462;2023-06-14T07:20:03;21.10;45.00
79065;DHT22;68469;51.502;7.462;2023-06-14T07:22:32;21.20;45.20
79065;DHT22;68469;51.502;7.462;2023-06-14T07:24:58;21.30;44.50
79065;DHT22;68469;51.502;7.462;2023-06-14T07:27:24;21.30;44.70
79065;DHT22;68469;51.502;7.462;2023-06-14T07:29:49;21.20;44.20
79065;DHT22;68469;51.502;7.462;2023-06-14T07:32:15;21.40;44.90
79065;DHT22;68469;51.502;7.462;2023-06-14T07:34:40;21.50;44.60
79065;DHT22;68469;51.502;7.462;2023-06-14T07:37:06;21.60;44.10
79065;DHT22;68469;51.502;7.462;2023-06-14T07:39:32;21.70;44.30
79065;DHT22;68469;51.502;7.462;2023-06-14T07:41:58;21.80;43.60
79065;DHT22;68469;51.502;7.462;2023-06-14T07:44:23;21.70;43.60
79065;DHT22;68469;51.502;7.462;2023-06-14T07:46:49;21.50;44.30
79065;DHT22;68469;51.502;7.462;2023-06-14T07:49:16;21.50;44.20
79065;DHT22;68469;51.502;7.462;2023-06-14T07:51:41;21.40;44.60
79065;DHT22;68469;51.502;7.462;2023-06-14T07:54:09;21.50;44.30
79065;DHT22;68469;51.502;7.462;2023-06-14T07:56:35;21.60;43.90
79065;DHT22;68469;51.502;7.462;2023-06-14T07:59:01;21.60;42.60
79065;DHT22;68469;51.502;7.462;2023-06-14T08:01:27;21.50;42.60
79065;DHT22;68469;51.502;7.462;2023-06-14T08:03:53;21.50;43.10
79065;DHT22;68469;51.502;7.462;2023-06-14T08:06:19;21.60;43.40
79065;DHT22;68469;51.502;7.462;2023-06-14T08:08:45;21.60;42.20
79065;DHT22;68469;51.502;7.462;2023-06-14T08:11:10;21.70;42.30
79065;DHT22;68469;51.502;7.462;2023-06-14T08:13:36;21.80;41.50
79065;DHT22;68469;51.502;7.462;2023-06-14T08:16:01;21.80;41.90
79065;DHT22;68469;51.502;7.462;2023-06-14T08:18:30;22.00;41.60
79065;DHT22;68469;51.502;7.462;2023-06-14T08:20:55;22.00;40.10
79065;DHT22;68469;51.502;7.462;2023-06-14T08:23:22;21.90;39.70
79065;DHT22;68469;51.502;7.462;2023-06-14T08:25:48;21.90;39.40
79065;DHT22;68469;51.502;7.462;2023-06-14T08:28:14;21.90;40.10
79065;DHT22;68469;51.502;7.462;2023-06-14T08:30:40;21.90;40.40
79065;DHT22;68469;51.502;7.462;2023-06-14T08:33:07;22.00;40.60
79065;DHT22;68469;51.502;7.462;2023-06-14T08:35:33;21.90;40.80
79065;DHT22;68469;51.502;7.462;2023-06-14T08:37:58;21.90;39.70
79065;DHT22;68469;51.502;7.462;2023-06-14T08:40:24;21.90;39.60
79065;DHT22;68469;51.502;7.462;2023-06-14T08:42:53;21.80;39.10
79065;DHT22;68469;51.502;7.462;2023-06-14T08:45:20;21.90;39.00
79065;DHT22;68469;51.502;7.462;2023-06-14T08:47:47;21.90;38.70
79065;DHT22;68469;51.502;7.462;2023-06-14T08:50:22;22.10;39.70
79065;DHT22;68469;51.502;7.462;2023-06-14T08:52:51;22.10;39.10
79065;DHT22;68469;51.502;7.462;2023-06-14T08:55:18;22.20;39.20
79065;DHT22;68469;51.502;7.462;2023-06-14T08:57:46;22.10;39.10
79065;DHT22;68469;51.502;7.462;2023-06-14T09:00:13;22.20;38.70
79065;DHT22;68469;51.502;7.462;2023-06-14T09:02:39;22.00;39.20
79065;DHT22;68469;51.502;7.462;2023-06-14T09:05:11;22.10;39.30
79065;DHT22;68469;51.502;7.462;2023-06-14T09:07:42;22.20;38.60
79065;DHT22;68469;51.502;7.462;2023-06-14T09:10:10;22.20;38.20
79065;DHT22;68469;51.502;7.462;2023-06-14T09:12:36;22.20;38.00
79065;DHT22;68469;51.502;7.462;2023-06-14T09:15:03;22.10;38.60
79065;DHT22;68469;51.502;7.462;2023-06-14T09:17:41;22.10;38.10
79065;DHT22;68469;51.502;7.462;2023-06-14T09:20:08;22.20;38.80
79065;DHT22;68469;51.502;7.462;2023-06-14T09:22:42;22.10;39.40
79065;DHT22;68469;51.502;7.462;2023-06-14T09:25:08;22.20;39.80
79065;DHT22;68469;51.502;7.462;2023-06-14T09:27:34;22.30;39.60
79065;DHT22;68469;51.502;7.462;2023-06-14T09:30:02;22.30;40.10
79065;DHT22;68469;51.502;7.462;2023-06-14T09:32:28;22.50;40.10
79065;DHT22;68469;51.502;7.462;2023-06-14T09:34:53;22.60;39.90
79065;DHT22;68469;51.502;7.462;2023-06-14T09:37:30;22.70;39.90
79065;DHT22;68469;51.502;7.462;2023-06-14T09:39:56;22.80;39.80
79065;DHT22;68469;51.502;7.462;2023-06-14T09:42:22;22.80;40.00
79065;DHT22;68469;51.502;7.462;2023-06-14T09:44:53;22.70;41.00
79065;DHT22;68469;51.502;7.462;2023-06-14T09:47:19;22.80;40.10
79065;DHT22;68469;51.502;7.462;2023-06-14T09:49:45;22.90;40.10
79065;DHT22;68469;51.502;7.462;2023-06-14T09:52:17;22.90;40.30
79065;DHT22;68469;51.502;7.462;2023-06-14T09:54:45;23.00;40.70
79065;DHT22;68469;51.502;7.462;2023-06-14T09:57:16;23.00;40.90
79065;DHT22;68469;51.502;7.462;2023-06-14T09:59:46;23.10;41.10
79065;DHT22;68469;51.502;7.462;2023-06-14T10:02:36;23.30;40.20
79065;DHT22;68469;51.502;7.462;2023-06-14T10:05:07;23.40;40.40
79065;DHT22;68469;51.502;7.462;2023-06-14T10:10:23;23.80;39.10
79065;DHT22;68469;51.502;7.462;2023-06-14T10:12:49;23.70;38.80
79065;DHT22;68469;51.502;7.462;2023-06-14T10:18:21;23.60;39.40
79065;DHT22;68469;51.502;7.462;2023-06-14T10:21:20;23.70;40.10
79065;DHT22;68469;51.502;7.462;2023-06-14T10:23:47;23.90;39.50
79065;DHT22;68469;51.502;7.462;2023-06-14T10:26:21;24.20;38.60
79065;DHT22;68469;51.502;7.462;2023-06-14T10:29:16;24.20;38.20
79065;DHT22;68469;51.502;7.462;2023-06-14T10:31:49;24.60;38.10
79065;DHT22;68469;51.502;7.462;2023-06-14T10:34:23;24.90;37.70
79065;DHT22;68469;51.502;7.462;2023-06-14T10:37:07;25.40;37.10
79065;DHT22;68469;51.502;7.462;2023-06-14T10:39:44;26.10;36.20
79065;DHT22;68469;51.502;7.462;2023-06-14T10:42:11;26.70;34.90
79065;DHT22;68469;51.502;7.462;2023-06-14T10:44:38;27.30;34.50
79065;DHT22;68469;51.502;7.462;2023-06-14T10:47:07;28.40;32.90
79065;DHT22;68469;51.502;7.462;2023-06-14T10:49:42;29.60;32.10
79065;DHT22;68469;51.502;7.462;2023-06-14T10:52:14;30.40;30.10
79065;DHT22;68469;51.502;7.462;2023-06-14T10:57:35;30.60;29.30
79065;DHT22;68469;51.502;7.462;2023-06-14T11:00:03;31.00;29.40
79065;DHT22;68469;51.502;7.462;2023-06-14T11:05:23;31.70;29.00
79065;DHT22;68469;51.502;7.462;2023-06-14T11:08:15;32.50;28.50
79065;DHT22;68469;51.502;7.462;2023-06-14T11:10:44;32.90;28.10
79065;DHT22;68469;51.502;7.462;2023-06-14T11:13:12;33.80;27.50
79065;DHT22;68469;51.502;7.462;2023-06-14T11:15:39;34.30;26.60
79065;DHT22;68469;51.502;7.462;2023-06-14T11:18:08;33.60;26.40
79065;DHT22;68469;51.502;7.462;2023-06-14T11:20:37;34.30;26.60
79065;DHT22;68469;51.502;7.462;2023-06-14T11:23:03;33.90;26.80
79065;DHT22;68469;51.502;7.462;2023-06-14T11:25:29;33.90;26.30
79065;DHT22;68469;51.502;7.462;2023-06-14T11:27:55;33.80;26.60
79065;DHT22;68469;51.502;7.462;2023-06-14T11:30:21;34.40;26.30
79065;DHT22;68469;51.502;7.462;2023-06-14T11:32:48;34.70;26.00
79065;DHT22;68469;51.502;7.462;2023-06-14T11:35:16;35.00;26.10
79065;DHT22;68469;51.502;7.462;2023-06-14T11:37:41;35.20;25.50
79065;DHT22;68469;51.502;7.462;2023-06-14T11:40:08;35.30;25.30
79065;DHT22;68469;51.502;7.462;2023-06-14T11:42:36;35.80;25.60
79065;DHT22;68469;51.502;7.462;2023-06-14T11:45:02;36.10;25.10
79065;DHT22;68469;51.502;7.462;2023-06-14T11:47:35;35.80;24.90
79065;DHT22;68469;51.502;7.462;2023-06-14T11:50:02;35.00;25.30
79065;DHT22;68469;51.502;7.462;2023-06-14T11:52:28;35.70;25.40
79065;DHT22;68469;51.502;7.462;2023-06-14T11:54:54;36.60;25.50
79065;DHT22;68469;51.502;7.462;2023-06-14T11:57:20;36.20;25.20
79065;DHT22;68469;51.502;7.462;2023-06-14T11:59:46;36.60;25.20
79065;DHT22;68469;51.502;7.462;2023-06-14T12:02:16;37.40;24.90
79065;DHT22;68469;51.502;7.462;2023-06-14T12:04:51;37.10;24.20
79065;DHT22;68469;51.502;7.462;2023-06-14T12:07:18;37.60;24.90
79065;DHT22;68469;51.502;7.462;2023-06-14T12:12:24;38.70;23.70
79065;DHT22;68469;51.502;7.462;2023-06-14T12:14:54;37.10;23.50
79065;DHT22;68469;51.502;7.462;2023-06-14T12:17:21;36.90;24.50
79065;DHT22;68469;51.502;7.462;2023-06-14T12:19:49;37.50;24.30
79065;DHT22;68469;51.502;7.462;2023-06-14T12:22:15;38.40;23.90
79065;DHT22;68469;51.502;7.462;2023-06-14T12:24:45;39.40;23.50
79065;DHT22;68469;51.502;7.462;2023-06-14T12:27:12;39.60;23.20
79065;DHT22;68469;51.502;7.462;2023-06-14T12:29:41;40.20;22.90
79065;DHT22;68469;51.502;7.462;2023-06-14T12:32:11;39.90;23.00
79065;DHT22;68469;51.502;7.462;2023-06-14T12:34:37;40.60;22.80
79065;DHT22;68469;51.502;7.462;2023-06-14T12:37:03;41.10;22.70
79065;DHT22;68469;51.502;7.462;2023-06-14T12:39:31;40.70;22.30
79065;DHT22;68469;51.502;7.462;2023-06-14T12:41:58;40.30;22.30
79065;DHT22;68469;51.502;7.462;2023-06-14T12:44:24;38.90;22.50
79065;DHT22;68469;51.502;7.462;2023-06-14T12:46:50;37.10;23.10
79065;DHT22;68469;51.502;7.462;2023-06-14T12:49:17;35.50;24.50
79065;DHT22;68469;51.502;7.462;2023-06-14T12:51:43;33.90;25.20
79065;DHT22;68469;51.502;7.462;2023-06-14T12:54:09;32.60;26.30
79065;DHT22;68469;51.502;7.462;2023-06-14T12:56:35;30.90;27.10
79065;DHT22;68469;51.502;7.462;2023-06-14T12:59:01;29.50;28.50
79065;DHT22;68469;51.502;7.462;2023-06-14T13:01:26;28.50;29.50
79065;DHT22;68469;51.502;7.462;2023-06-14T13:03:52;27.60;30.50
79065;DHT22;68469;51.502;7.462;2023-06-14T13:06:22;27.00;31.70
79065;DHT22;68469;51.502;7.462;2023-06-14T13:08:48;26.40;32.70
79065;DHT22;68469;51.502;7.462;2023-06-14T13:11:14;25.90;33.40
79065;DHT22;68469;51.502;7.462;2023-06-14T13:13:40;25.70;33.90
79065;DHT22;68469;51.502;7.462;2023-06-14T13:16:05;25.40;34.80
79065;DHT22;68469;51.502;7.462;2023-06-14T13:18:31;25.10;34.90
79065;DHT22;68469;51.502;7.462;2023-06-14T13:20:57;24.90;35.20
79065;DHT22;68469;51.502;7.462;2023-06-14T13:23:22;24.70;35.50
79065;DHT22;68469;51.502;7.462;2023-06-14T13:25:48;24.60;35.80
79065;DHT22;68469;51.502;7.462;2023-06-14T13:28:16;24.50;36.00
79065;DHT22;68469;51.502;7.462;2023-06-14T13:30:42;24.30;35.50
79065;DHT22;68469;51.502;7.462;2023-06-14T13:33:07;24.00;35.80
79065;DHT22;68469;51.502;7.462;2023-06-14T13:35:33;24.00;36.20
79065;DHT22;68469;51.502;7.462;2023-06-14T13:37:59;23.90;36.70
79065;DHT22;68469;51.502;7.462;2023-06-14T13:40:25;23.80;37.30
79065;DHT22;68469;51.502;7.462;2023-06-14T13:42:51;23.70;37.50
79065;DHT22;68469;51.502;7.462;2023-06-14T13:45:17;23.60;37.50
79065;DHT22;68469;51.502;7.462;2023-06-14T13:47:42;23.60;37.70
79065;DHT22;68469;51.502;7.462;2023-06-14T13:50:08;23.60;37.80
79065;DHT22;68469;51.502;7.462;2023-06-14T13:52:34;23.60;37.70
79065;DHT22;68469;51.502;7.462;2023-06-14T13:55:00;23.50;37.60
79065;DHT22;68469;51.502;7.462;2023-06-14T13:57:26;23.50;38.20
79065;DHT22;68469;51.502;7.462;2023-06-14T13:59:52;23.60;37.70
79065;DHT22;68469;51.502;7.462;2023-06-14T14:02:21;23.60;38.40
79065;DHT22;68469;51.502;7.462;2023-06-14T14:04:47;23.60;37.90
79065;DHT22;68469;51.502;7.462;2023-06-14T14:07:18;23.60;38.50
79065;DHT22;68469;51.502;7.462;2023-06-14T14:09:44;23.60;38.00
79065;DHT22;68469;51.502;7.462;2023-06-14T14:12:10;23.60;37.70
79065;DHT22;68469;51.502;7.462;2023-06-14T14:14:36;23.60;38.30
79065;DHT22;68469;51.502;7.462;2023-06-14T14:17:02;23.40;38.30
79065;DHT22;68469;51.502;7.462;2023-06-14T14:19:28;23.40;38.50
79065;DHT22;68469;51.502;7.462;2023-06-14T14:21:53;23.40;38.70
79065;DHT22;68469;51.502;7.462;2023-06-14T14:24:19;23.50;38.00
79065;DHT22;68469;51.502;7.462;2023-06-14T14:26:44;23.40;38.20
79065;DHT22;68469;51.502;7.462;2023-06-14T14:29:12;23.30;38.30
79065;DHT22;68469;51.502;7.462;2023-06-14T14:31:38;23.30;38.50
79065;DHT22;68469;51.502;7.462;2023-06-14T14:34:04;23.20;38.50
79065;DHT22;68469;51.502;7.462;2023-06-14T14:36:30;23.30;37.70
79065;DHT22;68469;51.502;7.462;2023-06-14T14:38:55;23.30;37.50
79065;DHT22;68469;51.502;7.462;2023-06-14T14:41:21;23.20;38.30
79065;DHT22;68469;51.502;7.462;2023-06-14T14:43:46;23.20;37.70
79065;DHT22;68469;51.502;7.462;2023-06-14T14:46:12;23.20;37.90
79065;DHT22;68469;51.502;7.462;2023-06-14T14:48:38;23.20;37.60
79065;DHT22;68469;51.502;7.462;2023-06-14T14:51:04;23.30;37.30
79065;DHT22;68469;51.502;7.462;2023-06-14T14:53:29;23.20;36.90
79065;DHT22;68469;51.502;7.462;2023-06-14T14:55:55;23.20;37.60
79065;DHT22;68469;51.502;7.462;2023-06-14T14:58:20;23.20;37.50
79065;DHT22;68469;51.502;7.462;2023-06-14T15:00:47;23.20;37.90
79065;DHT22;68469;51.502;7.462;2023-06-14T15:03:13;23.20;37.80
79065;DHT22;68469;51.502;7.462;2023-06-14T15:05:39;23.20;37.20
79065;DHT22;68469;51.502;7.462;2023-06-14T15:08:05;23.30;37.60
79065;DHT22;68469;51.502;7.462;2023-06-14T15:10:38;23.30;36.70
79065;DHT22;68469;51.502;7.462;2023-06-14T15:13:09;23.30;37.40
79065;DHT22;68469;51.502;7.462;2023-06-14T15:15:35;23.30;37.30
79065;DHT22;68469;51.502;7.462;2023-06-14T15:18:02;23.30;37.60
79065;DHT22;68469;51.502;7.462;2023-06-14T15:20:27;23.30;36.90
79065;DHT22;68469;51.502;7.462;2023-06-14T15:22:54;23.20;37.10
79065;DHT22;68469;51.502;7.462;2023-06-14T15:25:25;23.20;37.10
79065;DHT22;68469;51.502;7.462;2023-06-14T15:27:51;23.20;36.00
79065;DHT22;68469;51.502;7.462;2023-06-14T15:30:17;23.20;36.00
79065;DHT22;68469;51.502;7.462;2023-06-14T15:32:42;23.20;36.40
79065;DHT22;68469;51.502;7.462;2023-06-14T15:35:08;23.20;36.40
79065;DHT22;68469;51.502;7.462;2023-06-14T15:37:33;23.20;36.80
79065;DHT22;68469;51.502;7.462;2023-06-14T15:39:59;23.30;37.40
79065;DHT22;68469;51.502;7.462;2023-06-14T15:42:25;23.30;37.70
79065;DHT22;68469;51.502;7.462;2023-06-14T15:44:51;23.30;37.30